METAR Data
IDs: Format: Raw Decoded Include TAF

Data at: 1326 UTC 26 Feb 2021

KPWT 261256Z AUTO 13004KT 10SM CLR 01/00 A2988 RMK AO2 SLP124 T00060000 FZRANO